Time;durP1;ratioP1;P1;durP2;ratioP2;P2;SDS_P1;SDS_P2;PMS_P1;PMS_P2;Temp;Humidity;BMP_temperature;BMP_pressure;BME280_temperature;BME280_humidity;BME280_pressure;Samples;Min_cycle;Max_cycle;Signal;HPM_P1;HPM_P2
2023/09/12 00:01:40;;;;;;;7.40;3.13;;;;;;;17.80;100.00;101040.16;5070409;28;20119;-70
2023/09/12 00:04:06;;;;;;;8.05;3.03;;;;;;;17.51;100.00;100983.09;5071104;28;20093;-70
2023/09/12 00:06:31;;;;;;;6.32;3.00;;;;;;;17.31;100.00;100994.94;5070956;28;20105;-70
2023/09/12 00:08:56;;;;;;;8.75;3.10;;;;;;;17.33;100.00;101002.63;5071005;28;20024;-70
2023/09/12 00:11:25;;;;;;;10.65;3.28;;;;;;;17.63;100.00;101076.00;5070828;28;20047;-70
2023/09/12 00:13:51;;;;;;;7.68;2.90;;;;;;;17.65;100.00;101034.81;5069281;28;20101;-70
2023/09/12 00:16:16;;;;;;;10.57;3.00;;;;;;;17.72;100.00;101042.22;5052598;28;20876;-70
2023/09/12 00:18:42;;;;;;;5.88;3.13;;;;;;;17.63;100.00;101067.47;5070834;28;20025;-70
2023/09/12 00:21:08;;;;;;;6.13;2.50;;;;;;;17.50;100.00;101068.84;5069598;28;20036;-70
2023/09/12 00:23:33;;;;;;;7.22;3.13;;;;;;;17.89;100.00;101062.09;5070324;28;20028;-70
2023/09/12 00:25:59;;;;;;;6.55;2.67;;;;;;;17.90;100.00;101041.47;5052741;28;20056;-71
2023/09/12 00:28:24;;;;;;;8.38;2.60;;;;;;;17.77;100.00;101063.44;5062444;28;20049;-70
2023/09/12 00:30:49;;;;;;;7.70;2.75;;;;;;;17.76;100.00;101064.34;5030534;28;20034;-67
2023/09/12 00:33:15;;;;;;;5.32;2.65;;;;;;;17.45;100.00;101042.44;5062104;28;20116;-70
2023/09/12 00:35:40;;;;;;;6.45;2.28;;;;;;;18.04;100.00;101074.38;5029716;28;20044;-71
2023/09/12 00:38:06;;;;;;;8.07;2.45;;;;;;;17.66;100.00;101067.34;5030388;28;20487;-70
2023/09/12 00:40:32;;;;;;;4.22;2.60;;;;;;;17.83;100.00;101080.34;5029114;28;20172;-70
2023/09/12 00:42:59;;;;;;;4.95;2.45;;;;;;;17.62;100.00;101097.50;5028883;28;20033;-69
2023/09/12 00:45:24;;;;;;;6.05;2.40;;;;;;;17.70;100.00;101076.59;5030963;28;20044;-69
2023/09/12 00:47:52;;;;;;;4.60;2.35;;;;;;;17.46;100.00;101038.94;5035158;28;20468;-70
2023/09/12 00:50:19;;;;;;;5.15;2.42;;;;;;;17.29;100.00;101037.88;5049900;28;20385;-71
2023/09/12 00:52:45;;;;;;;3.60;2.40;;;;;;;17.41;100.00;101056.31;5034569;28;20116;-70
2023/09/12 00:55:11;;;;;;;6.40;2.88;;;;;;;16.93;100.00;101070.09;5049791;28;20392;-70
2023/09/12 00:57:37;;;;;;;7.85;2.67;;;;;;;17.06;100.00;101116.72;5034370;28;20040;-68
2023/09/12 01:00:10;;;;;;;6.85;2.97;;;;;;;17.16;100.00;101131.78;5050323;28;20048;-72
2023/09/12 01:02:37;;;;;;;4.93;2.90;;;;;;;16.84;100.00;101126.94;5035389;28;20029;-72
2023/09/12 01:05:04;;;;;;;5.07;2.80;;;;;;;16.80;100.00;101060.31;5049673;28;20026;-71
2023/09/12 01:07:30;;;;;;;7.25;2.78;;;;;;;16.53;100.00;101072.41;5033036;28;20021;-71
2023/09/12 01:09:55;;;;;;;10.40;2.92;;;;;;;16.43;100.00;101082.13;5033749;28;20566;-69
2023/09/12 01:12:21;;;;;;;5.50;2.65;;;;;;;16.06;100.00;101037.22;5034098;28;20025;-70
2023/09/12 01:14:47;;;;;;;6.30;2.95;;;;;;;16.45;100.00;101153.94;5034137;28;20051;-70
2023/09/12 01:17:12;;;;;;;5.45;2.42;;;;;;;16.44;100.00;101127.44;5034160;28;20091;-70
2023/09/12 01:19:37;;;;;;;6.70;3.13;;;;;;;16.76;100.00;101151.22;5033857;28;20084;-70
2023/09/12 01:22:09;;;;;;;7.55;3.00;;;;;;;16.64;100.00;101167.88;5033685;28;20056;-71
2023/09/12 01:24:38;;;;;;;4.70;2.58;;;;;;;16.55;100.00;101172.50;5049274;28;20087;-70
2023/09/12 01:27:46;;;;;;;12.10;3.17;;;;;;;16.70;100.00;101170.25;5048617;28;20041;-70
2023/09/12 01:30:12;;;;;;;4.25;2.78;;;;;;;16.51;100.00;101158.91;5030796;28;20049;-70
2023/09/12 01:32:39;;;;;;;5.25;3.00;;;;;;;16.40;100.00;101187.47;5032206;28;20037;-70
2023/09/12 01:35:05;;;;;;;6.93;3.10;;;;;;;15.91;100.00;101079.59;5033569;28;20026;-70
2023/09/12 01:37:31;;;;;;;7.70;3.00;;;;;;;16.51;100.00;101191.44;5033327;28;20044;-71
2023/09/12 01:39:57;;;;;;;6.30;3.15;;;;;;;16.39;100.00;101177.25;5032550;28;20026;-70
2023/09/12 01:42:24;;;;;;;7.22;2.88;;;;;;;16.27;100.00;101211.00;5032489;28;20022;-70
2023/09/12 01:44:54;;;;;;;5.25;2.60;;;;;;;16.44;100.00;101213.88;5033424;28;20087;-70
2023/09/12 01:47:22;;;;;;;5.50;2.60;;;;;;;16.47;100.00;101224.06;5048746;28;20058;-69
2023/09/12 01:49:51;;;;;;;6.13;2.95;;;;;;;16.25;100.00;101234.16;5033198;28;20030;-68
2023/09/12 01:52:18;;;;;;;6.88;3.10;;;;;;;16.29;100.00;101240.88;5033888;28;20091;-70
2023/09/12 01:54:44;;;;;;;8.38;3.15;;;;;;;15.85;100.00;101196.94;5033411;28;20117;-70
2023/09/12 01:57:10;;;;;;;5.10;3.00;;;;;;;15.61;100.00;101219.00;5033319;28;20037;-70
2023/09/12 01:59:36;;;;;;;7.18;3.05;;;;;;;15.94;100.00;101269.34;5031931;28;20778;-70
2023/09/12 02:02:02;;;;;;;5.07;3.10;;;;;;;15.80;100.00;101239.84;5033153;28;20029;-70
2023/09/12 02:04:27;;;;;;;4.88;2.90;;;;;;;15.79;100.00;101221.03;5032593;28;20026;-68
2023/09/12 02:06:52;;;;;;;8.27;3.03;;;;;;;15.70;100.00;101248.69;5033356;28;20025;-70
2023/09/12 02:09:18;;;;;;;6.53;3.20;;;;;;;15.71;100.00;101261.44;5031474;28;20450;-70
2023/09/12 02:11:43;;;;;;;6.38;3.20;;;;;;;15.79;100.00;101215.91;5033395;28;20033;-70
2023/09/12 02:14:10;;;;;;;5.13;2.75;;;;;;;15.73;100.00;101240.91;5032904;28;20032;-71
2023/09/12 02:16:40;;;;;;;5.45;2.90;;;;;;;16.07;100.00;101290.31;5032717;28;20033;-70
2023/09/12 02:19:06;;;;;;;5.95;3.05;;;;;;;16.12;100.00;101311.56;5032751;28;20082;-70
2023/09/12 02:21:31;;;;;;;3.42;2.65;;;;;;;16.01;100.00;101293.91;5032554;28;20025;-70
2023/09/12 02:23:57;;;;;;;6.35;3.10;;;;;;;15.54;100.00;101223.47;5030878;28;20037;-70
2023/09/12 02:26:22;;;;;;;6.70;2.63;;;;;;;15.54;100.00;101258.53;5011688;28;20508;-70
2023/09/12 02:28:47;;;;;;;5.88;3.28;;;;;;;15.88;100.00;101310.56;5034596;28;20060;-71
2023/09/12 02:31:13;;;;;;;5.95;2.90;;;;;;;15.51;100.00;101289.34;5061582;28;20033;-70
2023/09/12 02:33:39;;;;;;;6.32;3.00;;;;;;;16.26;100.00;101317.16;5071834;28;20045;-70
2023/09/12 02:36:05;;;;;;;7.40;2.78;;;;;;;15.87;100.00;101288.34;5054304;28;20112;-70
2023/09/12 02:38:31;;;;;;;4.90;2.80;;;;;;;15.78;100.00;101275.78;5072683;28;20052;-70
2023/09/12 02:40:56;;;;;;;6.22;2.85;;;;;;;16.03;100.00;101352.88;5072182;28;20137;-70
2023/09/12 02:43:22;;;;;;;4.82;2.65;;;;;;;16.06;100.00;101283.53;5054403;28;20557;-70
2023/09/12 02:45:47;;;;;;;5.63;2.83;;;;;;;16.31;100.00;101320.41;5072075;28;20036;-70
2023/09/12 02:48:12;;;;;;;8.27;3.17;;;;;;;15.89;100.00;101284.00;5071997;28;20020;-71
2023/09/12 02:50:38;;;;;;;8.35;3.50;;;;;;;15.92;100.00;101340.38;5072124;28;20024;-70
2023/09/12 02:53:03;;;;;;;7.43;3.65;;;;;;;16.14;100.00;101345.72;5070896;28;20060;-70
2023/09/12 02:55:29;;;;;;;7.75;3.40;;;;;;;15.60;100.00;101287.41;5070918;28;20094;-70
2023/09/12 02:57:54;;;;;;;9.52;3.28;;;;;;;16.22;100.00;101342.03;5070649;28;20075;-69
2023/09/12 03:00:20;;;;;;;6.97;3.20;;;;;;;16.63;100.00;101327.16;5070790;28;20287;-70
2023/09/12 03:02:45;;;;;;;5.93;3.40;;;;;;;16.11;100.00;101272.25;5076687;28;20039;-72
2023/09/12 03:05:11;;;;;;;6.88;3.53;;;;;;;16.06;100.00;101338.25;5075483;28;20127;-68
2023/09/12 03:07:36;;;;;;;12.63;4.22;;;;;;;15.69;100.00;101291.41;5073640;28;20052;-70
2023/09/12 03:10:02;;;;;;;13.98;4.05;;;;;;;15.69;100.00;101282.91;5071334;28;20464;-69
2023/09/12 03:12:28;;;;;;;9.02;3.70;;;;;;;15.88;100.00;101349.03;5071906;28;20028;-70
2023/09/12 03:14:53;;;;;;;8.73;3.40;;;;;;;15.81;100.00;101372.31;5071276;28;20115;-71
2023/09/12 03:17:19;;;;;;;6.93;3.40;;;;;;;15.80;100.00;101286.00;5071321;28;20032;-70
2023/09/12 03:19:44;;;;;;;5.38;3.28;;;;;;;15.85;100.00;101300.38;5052181;28;20090;-70
2023/09/12 03:22:09;;;;;;;5.50;2.90;;;;;;;15.40;100.00;101247.78;5070398;28;20115;-70
2023/09/12 03:24:35;;;;;;;8.07;3.08;;;;;;;15.41;100.00;101326.38;5053128;28;20032;-70
2023/09/12 03:27:00;;;;;;;9.77;3.10;;;;;;;14.91;100.00;101214.94;5084736;28;20139;-70
2023/09/12 03:29:26;;;;;;;8.27;3.50;;;;;;;15.42;100.00;101346.00;5073423;28;20127;-70
2023/09/12 03:31:51;;;;;;;9.75;3.83;;;;;;;15.28;100.00;101354.00;5062978;28;20037;-71
2023/09/12 03:34:16;;;;;;;8.20;3.78;;;;;;;15.23;100.00;101366.09;5070765;28;20137;-70
2023/09/12 03:36:42;;;;;;;13.93;4.30;;;;;;;15.78;100.00;101386.06;5071075;28;20120;-70
2023/09/12 03:39:08;;;;;;;6.15;4.13;;;;;;;15.45;100.00;101382.66;5071487;28;20020;-69
2023/09/12 03:41:34;;;;;;;9.38;4.43;;;;;;;14.49;100.00;101313.25;5069746;28;20117;-66
2023/09/12 03:44:00;;;;;;;8.90;4.22;;;;;;;15.43;100.00;101422.84;5069525;28;20481;-70
2023/09/12 03:46:25;;;;;;;7.43;4.30;;;;;;;15.12;100.00;101439.81;5068355;28;20033;-68
2023/09/12 03:48:51;;;;;;;10.45;4.50;;;;;;;15.08;100.00;101412.59;5068916;28;20036;-70
2023/09/12 03:51:16;;;;;;;11.05;4.07;;;;;;;14.63;100.00;101395.69;5069745;28;20082;-70
2023/09/12 03:53:42;;;;;;;8.20;4.53;;;;;;;15.15;100.00;101465.34;5070579;28;20047;-70
2023/09/12 03:56:10;;;;;;;10.50;3.97;;;;;;;15.03;100.00;101481.03;5071110;28;20029;-70
2023/09/12 03:58:35;;;;;;;11.32;3.95;;;;;;;14.99;100.00;101468.31;5069182;28;20028;-71
2023/09/12 04:01:00;;;;;;;8.70;3.40;;;;;;;15.41;100.00;101468.16;5070707;28;20082;-72
2023/09/12 04:03:26;;;;;;;6.75;2.90;;;;;;;15.23;100.00;101466.00;5056716;28;20073;-72
2023/09/12 04:05:51;;;;;;;5.13;2.75;;;;;;;15.46;100.00;101453.56;5050750;28;20498;-72
2023/09/12 04:08:17;;;;;;;8.23;3.10;;;;;;;14.86;100.00;101378.09;5049399;28;20115;-70
2023/09/12 04:10:43;;;;;;;4.68;3.25;;;;;;;14.85;100.00;101445.56;5055281;28;20024;-70
2023/09/12 04:13:08;;;;;;;4.00;2.60;;;;;;;14.29;100.00;101393.00;5070483;28;20549;-69
2023/09/12 04:15:34;;;;;;;6.78;2.90;;;;;;;13.82;100.00;101350.44;5070277;28;20123;-69
2023/09/12 04:17:59;;;;;;;6.90;2.72;;;;;;;14.75;100.00;101424.44;5070444;28;20035;-71
2023/09/12 04:20:25;;;;;;;8.88;3.00;;;;;;;14.65;100.00;101455.38;5069766;28;20086;-70
2023/09/12 04:22:50;;;;;;;6.78;2.60;;;;;;;14.87;100.00;101436.13;5086190;28;20060;-71
2023/09/12 04:25:15;;;;;;;6.57;2.70;;;;;;;14.63;100.00;101367.53;5069060;28;20060;-71
2023/09/12 04:27:42;;;;;;;6.38;3.00;;;;;;;14.83;100.00;101425.97;5068751;28;20110;-71
2023/09/12 04:30:08;;;;;;;6.53;4.93;;;;;;;14.26;100.00;101329.06;5068983;28;20035;-70
2023/09/12 04:32:33;;;;;;;8.63;6.57;;;;;;;15.24;100.00;101415.63;5070270;28;20036;-71
2023/09/12 04:34:59;;;;;;;8.82;3.83;;;;;;;15.01;100.00;101412.75;5068243;28;20029;-71
2023/09/12 04:37:25;;;;;;;7.95;3.80;;;;;;;14.93;100.00;101355.75;5062373;28;20047;-69
2023/09/12 04:39:50;;;;;;;10.88;3.75;;;;;;;15.22;100.00;101389.19;5066869;28;20034;-69
2023/09/12 04:42:16;;;;;;;9.30;4.57;;;;;;;15.45;100.00;101371.56;5068711;28;20478;-70
2023/09/12 04:44:42;;;;;;;13.57;4.90;;;;;;;15.88;100.00;101368.72;5070495;28;20402;-73
2023/09/12 04:47:09;;;;;;;16.85;8.90;;;;;;;15.71;100.00;101287.09;5051285;28;20037;-74
2023/09/12 04:49:34;;;;;;;36.50;20.02;;;;;;;15.76;100.00;101344.25;5050741;28;20025;-72
2023/09/12 04:52:00;;;;;;;28.80;18.13;;;;;;;15.66;100.00;101334.25;5049930;28;20399;-71
2023/09/12 04:54:25;;;;;;;16.23;9.65;;;;;;;15.29;100.00;101330.06;5047055;28;20033;-71
2023/09/12 04:56:51;;;;;;;18.88;10.45;;;;;;;15.86;100.00;101391.00;5049502;28;20035;-71
2023/09/12 04:59:16;;;;;;;9.50;7.57;;;;;;;15.47;100.00;101352.69;5049764;28;20040;-71
2023/09/12 05:01:42;;;;;;;36.30;30.90;;;;;;;16.00;100.00;101389.75;5049500;28;20028;-71
2023/09/12 05:04:07;;;;;;;48.25;40.97;;;;;;;15.88;100.00;101391.78;5050395;28;20033;-72
2023/09/12 05:06:34;;;;;;;80.57;71.40;;;;;;;15.77;100.00;101350.22;5050522;28;20108;-72
2023/09/12 05:08:59;;;;;;;51.72;46.08;;;;;;;16.12;100.00;101386.00;5048943;28;20037;-72
2023/09/12 05:11:25;;;;;;;49.88;43.70;;;;;;;15.89;100.00;101285.72;5050990;28;20029;-73
2023/09/12 05:13:51;;;;;;;26.40;22.73;;;;;;;17.02;100.00;101337.00;5050806;28;20067;-72
2023/09/12 05:16:16;;;;;;;21.38;11.65;;;;;;;16.96;100.00;101252.41;5049658;28;20043;-72
2023/09/12 05:18:41;;;;;;;18.25;7.30;;;;;;;17.06;100.00;101294.91;5049550;28;20048;-72
2023/09/12 05:21:07;;;;;;;15.38;6.80;;;;;;;17.23;100.00;101206.94;5050696;28;20461;-72
2023/09/12 05:23:32;;;;;;;15.25;5.53;;;;;;;17.15;100.00;101190.94;5050484;28;20075;-74
2023/09/12 05:25:58;;;;;;;15.77;5.57;;;;;;;18.16;100.00;101190.53;5050391;28;20556;-74
2023/09/12 05:28:23;;;;;;;15.75;5.10;;;;;;;18.05;100.00;101189.28;5050379;28;20045;-73
2023/09/12 05:30:49;;;;;;;13.15;4.97;;;;;;;18.37;100.00;101159.66;5051847;28;20040;-73
2023/09/12 05:33:14;;;;;;;12.10;4.63;;;;;;;18.52;100.00;101159.09;5053974;28;20033;-73
2023/09/12 05:35:40;;;;;;;9.27;4.00;;;;;;;18.84;100.00;101113.00;5053951;28;20056;-73
2023/09/12 05:38:05;;;;;;;9.00;3.65;;;;;;;18.20;100.00;101049.66;5053759;28;20029;-75
2023/09/12 05:40:31;;;;;;;6.82;3.22;;;;;;;18.82;100.00;101088.19;5054154;28;20114;-74
2023/09/12 05:42:56;;;;;;;8.75;3.35;;;;;;;19.04;100.00;101066.56;5053916;28;20055;-73
2023/09/12 05:45:22;;;;;;;8.25;2.92;;;;;;;19.19;100.00;101069.34;5053756;28;20025;-72
2023/09/12 05:47:48;;;;;;;10.40;3.17;;;;;;;19.60;100.00;101053.63;5053657;28;20029;-74
2023/09/12 05:50:13;;;;;;;8.10;3.15;;;;;;;19.20;100.00;100936.91;5052776;28;20028;-73
2023/09/12 05:52:38;;;;;;;10.55;3.38;;;;;;;19.85;100.00;101033.47;5053677;28;20025;-73
2023/09/12 05:55:04;;;;;;;8.40;3.35;;;;;;;20.31;100.00;101065.59;5053375;28;20025;-73
2023/09/12 05:57:33;;;;;;;14.48;3.35;;;;;;;20.74;100.00;101051.28;5053376;28;20037;-74
2023/09/12 06:00:04;;;;;;;5.72;2.70;;;;;;;19.96;100.00;100991.63;5035553;28;20029;-72
2023/09/12 06:02:30;;;;;;;8.05;3.30;;;;;;;20.20;100.00;101074.81;5053359;28;20029;-72
2023/09/12 06:04:56;;;;;;;12.88;3.22;;;;;;;20.78;100.00;101065.72;5053323;28;20028;-72
2023/09/12 06:07:21;;;;;;;18.23;3.63;;;;;;;20.65;100.00;101003.53;5035796;28;20564;-72
2023/09/12 06:09:47;;;;;;;8.48;3.20;;;;;;;20.92;100.00;101071.00;5053651;28;20033;-72
2023/09/12 06:12:12;;;;;;;12.95;3.22;;;;;;;21.56;100.00;101065.78;5052167;28;20033;-75
2023/09/12 06:14:37;;;;;;;10.48;3.30;;;;;;;21.62;100.00;101043.91;5052955;28;20063;-73
2023/09/12 06:17:03;;;;;;;10.10;3.10;;;;;;;21.50;100.00;100965.19;5053283;28;20129;-73
2023/09/12 06:19:28;;;;;;;10.45;3.22;;;;;;;21.48;100.00;101062.78;5053416;28;20060;-74
2023/09/12 06:21:55;;;;;;;11.80;3.30;;;;;;;20.95;100.00;101039.00;5064086;28;20053;-72
2023/09/12 06:24:21;;;;;;;7.05;2.97;;;;;;;21.91;100.00;101036.16;5057463;28;20025;-72
2023/09/12 06:26:47;;;;;;;10.23;3.50;;;;;;;21.67;100.00;100988.34;5052955;28;20076;-72
2023/09/12 06:29:13;;;;;;;13.93;7.40;;;;;;;21.50;100.00;101045.44;5051532;28;20059;-72
2023/09/12 06:31:41;;;;;;;17.25;8.45;;;;;;;22.28;100.00;101059.00;5052833;28;20029;-72
2023/09/12 06:34:06;;;;;;;12.63;8.60;;;;;;;22.57;100.00;101066.81;5052979;28;20465;-72
2023/09/12 06:36:32;;;;;;;13.20;7.90;;;;;;;22.39;100.00;101060.97;5052792;28;20032;-71
2023/09/12 06:38:58;;;;;;;5.20;4.07;;;;;;;22.46;100.00;101040.72;5052982;28;20028;-72
2023/09/12 06:41:24;;;;;;;7.57;2.90;;;;;;;23.20;100.00;100993.66;5051976;28;20032;-72
2023/09/12 06:43:50;;;;;;;5.47;2.60;;;;;;;23.76;100.00;101015.97;5051657;28;20044;-70
2023/09/12 06:46:17;;;;;;;5.63;2.13;;;;;;;23.52;100.00;101014.97;5052571;28;20033;-71
2023/09/12 06:48:44;;;;;;;4.82;1.88;;;;;;;23.13;100.00;100986.38;5034510;28;20084;-70
2023/09/12 06:51:10;;;;;;;10.23;3.65;;;;;;;23.34;100.00;100977.22;5052419;28;20036;-71
2023/09/12 06:53:37;;;;;;;4.57;2.22;;;;;;;22.95;100.00;100997.91;5052480;28;20411;-71
2023/09/12 06:56:03;;;;;;;5.70;2.35;;;;;;;23.10;100.00;101046.22;5051923;28;20037;-70
2023/09/12 06:58:28;;;;;;;8.07;2.75;;;;;;;23.00;100.00;101025.22;5051863;28;20487;-68
2023/09/12 07:00:54;;;;;;;6.13;2.50;;;;;;;23.84;100.00;101007.66;5034092;28;20035;-70
2023/09/12 07:03:19;;;;;;;4.53;2.35;;;;;;;22.89;100.00;101000.88;5052040;28;20036;-70
2023/09/12 07:05:45;;;;;;;4.65;3.03;;;;;;;23.12;100.00;101045.22;5051701;28;20059;-71
2023/09/12 07:08:10;;;;;;;1.67;1.38;;;;;;;24.65;100.00;100993.44;5059544;28;20032;-71
2023/09/12 07:10:36;;;;;;;6.95;3.05;;;;;;;24.01;100.00;100990.00;5071678;28;20399;-71
2023/09/12 07:13:02;;;;;;;4.18;1.98;;;;;;;23.88;100.00;100968.41;5071420;28;20516;-71
2023/09/12 07:15:28;;;;;;;6.35;2.03;;;;;;;24.70;100.00;100944.53;5071531;28;20044;-73
2023/09/12 07:17:53;;;;;;;7.40;2.30;;;;;;;23.99;100.00;100915.69;5071544;28;20033;-73
2023/09/12 07:20:20;;;;;;;5.80;1.70;;;;;;;24.81;100.00;100989.69;5071798;28;20060;-70
2023/09/12 07:22:46;;;;;;;4.32;1.95;;;;;;;24.94;100.00;100940.16;5071413;28;20055;-71
2023/09/12 07:25:13;;;;;;;7.93;3.38;;;;;;;23.24;100.00;101000.31;5071761;28;20064;-71
2023/09/12 07:27:39;;;;;;;3.63;2.30;;;;;;;24.96;100.00;100974.72;5071570;28;20067;-71
2023/09/12 07:30:06;;;;;;;4.60;2.10;;;;;;;24.15;100.00;100951.88;5071285;28;20028;-72
2023/09/12 07:32:31;;;;;;;3.15;2.00;;;;;;;23.85;100.00;100962.56;5071248;28;20102;-71
2023/09/12 07:34:57;;;;;;;4.55;2.38;;;;;;;24.87;100.00;100918.16;5070013;28;20029;-72
2023/09/12 07:37:22;;;;;;;7.72;2.30;;;;;;;25.10;100.00;100927.72;5071298;28;20090;-71
2023/09/12 07:39:48;;;;;;;6.90;2.30;;;;;;;24.88;100.00;100943.22;5071257;28;20536;-71
2023/09/12 07:42:13;;;;;;;4.90;2.40;;;;;;;25.18;100.00;100912.34;5070540;28;20119;-70
2023/09/12 07:44:38;;;;;;;7.90;3.10;;;;;;;25.62;100.00;100901.28;5053092;28;20028;-71
2023/09/12 07:47:05;;;;;;;4.07;2.00;;;;;;;25.48;100.00;100975.25;5071212;28;20091;-71
2023/09/12 07:49:30;;;;;;;3.53;1.83;;;;;;;25.08;100.00;100918.38;5070064;28;20452;-72
2023/09/12 07:51:57;;;;;;;3.03;1.65;;;;;;;26.16;100.00;100883.19;5070978;28;20043;-71
2023/09/12 07:54:22;;;;;;;4.50;1.90;;;;;;;25.59;100.00;100944.00;5070946;28;20036;-72
2023/09/12 07:56:48;;;;;;;4.15;1.77;;;;;;;25.85;100.00;100938.63;5070516;28;20032;-71
2023/09/12 07:59:14;;;;;;;3.45;1.73;;;;;;;25.26;100.00;100966.47;5053125;28;20132;-71
2023/09/12 08:01:40;;;;;;;6.88;2.00;;;;;;;25.96;100.00;100956.88;5070810;28;20082;-71
2023/09/12 08:04:05;;;;;;;7.22;1.90;;;;;;;25.64;100.00;100887.19;5052749;28;20055;-71
2023/09/12 08:06:32;;;;;;;4.88;1.92;;;;;;;26.05;100.00;100922.31;5052654;28;20055;-72
2023/09/12 08:08:57;;;;;;;3.67;1.70;;;;;;;26.38;100.00;100896.22;5071154;28;20101;-72
2023/09/12 08:11:23;;;;;;;2.17;1.73;;;;;;;26.63;100.00;100895.91;5069189;28;20475;-71
2023/09/12 08:13:49;;;;;;;4.65;1.95;;;;;;;26.04;100.00;100944.94;5069724;28;20024;-71
2023/09/12 08:16:15;;;;;;;6.28;1.90;;;;;;;26.85;100.00;100902.88;5070972;28;20074;-72
2023/09/12 08:18:40;;;;;;;5.00;1.90;;;;;;;27.01;100.00;100905.91;5071077;28;20032;-73
2023/09/12 08:21:06;;;;;;;4.10;1.98;;;;;;;26.62;100.00;100878.63;5070519;28;20145;-72
2023/09/12 08:23:31;;;;;;;8.23;1.83;;;;;;;26.66;100.00;100827.00;5070206;28;20028;-71
2023/09/12 08:25:56;;;;;;;8.15;1.92;;;;;;;26.92;100.00;100823.94;5070473;28;20027;-70
2023/09/12 08:28:22;;;;;;;4.55;2.00;;;;;;;26.76;100.00;100789.59;5070905;28;20495;-71
2023/09/12 08:30:47;;;;;;;5.38;1.70;;;;;;;26.92;100.00;100888.41;5070304;28;20060;-71
2023/09/12 08:33:13;;;;;;;4.78;1.77;;;;;;;27.31;100.00;100866.84;5070239;28;20020;-72
2023/09/12 08:35:38;;;;;;;3.05;1.58;;;;;;;26.78;100.00;100824.22;5070829;28;20032;-72
2023/09/12 08:38:04;;;;;;;5.78;2.20;;;;;;;27.12;100.00;100877.97;5070090;28;20043;-72
2023/09/12 08:40:30;;;;;;;4.72;1.73;;;;;;;27.01;100.00;100864.13;5070446;28;20086;-71
2023/09/12 08:42:57;;;;;;;4.57;2.33;;;;;;;26.34;100.00;100892.19;5069823;28;20036;-71
2023/09/12 08:45:23;;;;;;;4.93;2.45;;;;;;;27.41;100.00;100852.88;5071012;28;20067;-71
2023/09/12 08:47:56;;;;;;;3.60;1.85;;;;;;;26.98;100.00;100801.72;5070266;28;20056;-71
2023/09/12 08:50:26;;;;;;;3.50;1.92;;;;;;;26.41;100.00;100843.78;5070701;28;20029;-72
2023/09/12 08:52:52;;;;;;;6.05;2.17;;;;;;;27.32;100.00;100852.78;5070548;28;20040;-71
2023/09/12 08:55:17;;;;;;;4.90;1.75;;;;;;;27.65;100.00;100765.53;5070219;28;20041;-71
2023/09/12 08:57:47;;;;;;;7.85;2.00;;;;;;;27.13;100.00;100746.44;5069997;28;20044;-72
2023/09/12 09:00:13;;;;;;;11.43;2.03;;;;;;;27.70;100.00;100779.84;5069199;28;20040;-73
2023/09/12 09:02:42;;;;;;;6.20;2.17;;;;;;;27.78;100.00;100834.91;5070591;28;20028;-73
2023/09/12 09:05:11;;;;;;;5.43;1.70;;;;;;;27.38;100.00;100797.44;5070395;28;20107;-73
2023/09/12 09:07:40;;;;;;;5.45;2.00;;;;;;;27.00;100.00;100839.78;5074213;28;20457;-72
2023/09/12 09:10:08;;;;;;;4.90;1.77;;;;;;;28.08;100.00;100793.06;5072871;28;20024;-73
2023/09/12 09:12:34;;;;;;;5.45;1.88;;;;;;;28.27;100.00;100753.84;5074621;28;20091;-71
2023/09/12 09:15:29;;;;;;;6.85;2.00;;;;;;;28.55;100.00;100801.97;5073572;28;20118;-70
2023/09/12 09:17:56;;;;;;;5.50;2.33;;;;;;;29.04;100.00;100778.19;4721006;28;10000153;-70
2023/09/12 09:20:26;;;;;;;3.97;1.90;;;;;;;27.97;100.00;100821.13;5050750;28;20055;-70
2023/09/12 09:23:05;;;;;;;4.78;2.00;;;;;;;27.75;100.00;100840.41;5069298;28;20518;-69
2023/09/12 09:25:33;;;;;;;7.72;3.50;;;;;;;28.51;100.00;100769.13;5070652;28;20518;-69
2023/09/12 09:28:03;;;;;;;7.75;2.47;;;;;;;28.44;100.00;100780.28;5070697;28;20163;-69
2023/09/12 09:30:42;;;;;;;6.57;2.58;;;;;;;28.68;100.00;100786.78;5068868;28;20383;-70
2023/09/12 09:33:10;;;;;;;4.95;2.00;;;;;;;28.92;100.00;100752.31;5070076;28;20040;-70
2023/09/12 09:35:36;;;;;;;4.88;2.42;;;;;;;28.87;100.00;100762.38;5070698;28;20036;-70
2023/09/12 09:38:06;;;;;;;3.95;1.95;;;;;;;28.00;100.00;100739.78;5077129;28;20040;-70
2023/09/12 09:40:33;;;;;;;8.45;3.35;;;;;;;28.48;100.00;100709.22;5073766;28;20033;-70
2023/09/12 09:42:59;;;;;;;5.68;2.30;;;;;;;28.73;100.00;100681.63;5070174;28;20085;-70
2023/09/12 09:45:25;;;;;;;6.15;2.00;;;;;;;29.53;100.00;100729.94;5071937;28;20505;-73
2023/09/12 09:47:51;;;;;;;10.75;2.17;;;;;;;28.74;100.00;100752.19;5072980;28;20040;-73
2023/09/12 09:50:16;;;;;;;3.85;2.22;;;;;;;29.63;100.00;100719.38;5073525;28;20020;-71
2023/09/12 09:52:45;;;;;;;7.03;1.98;;;;;;;28.87;100.00;100710.00;5055543;28;20491;-72
2023/09/12 09:55:15;;;;;;;3.58;2.10;;;;;;;28.72;100.00;100763.78;5072094;28;20025;-73
2023/09/12 09:57:40;;;;;;;4.78;2.13;;;;;;;28.81;100.00;100744.59;5054557;28;20036;-72
2023/09/12 10:00:14;;;;;;;7.55;2.30;;;;;;;29.32;100.00;100716.22;5054392;28;20028;-74
2023/09/12 10:02:40;;;;;;;6.65;2.53;;;;;;;28.46;100.00;100736.50;5072776;28;20028;-73
2023/09/12 10:05:09;;;;;;;3.85;2.10;;;;;;;28.96;100.00;100678.53;5072697;28;20028;-74
2023/09/12 10:07:37;;;;;;;3.05;1.90;;;;;;;28.81;100.00;100693.06;5053862;28;20035;-73
2023/09/12 10:10:04;;;;;;;6.90;2.05;;;;;;;28.52;100.00;100687.03;5072810;28;20051;-71
2023/09/12 10:12:31;;;;;;;4.72;2.13;;;;;;;29.14;100.00;100686.50;5054950;28;20387;-73
2023/09/12 10:15:00;;;;;;;7.43;2.30;;;;;;;29.50;100.00;100637.63;5073084;28;20115;-72
2023/09/12 10:17:34;;;;;;;8.48;2.10;;;;;;;29.28;100.00;100721.91;5072024;28;20486;-72
2023/09/12 10:20:09;;;;;;;4.55;2.10;;;;;;;28.01;100.00;100771.00;5073109;28;20052;-72
2023/09/12 10:22:40;;;;;;;5.38;2.15;;;;;;;28.88;100.00;100669.75;5054851;28;20028;-72
2023/09/12 10:25:07;;;;;;;5.55;2.47;;;;;;;29.48;100.00;100656.13;5072944;28;20069;-73
2023/09/12 10:27:33;;;;;;;5.25;2.35;;;;;;;28.59;100.00;100737.88;5073017;28;20522;-72
2023/09/12 10:30:00;;;;;;;4.00;2.40;;;;;;;28.79;100.00;100668.81;5072712;28;20035;-72
2023/09/12 10:32:27;;;;;;;8.07;2.45;;;;;;;29.70;100.00;100694.22;5072877;28;20036;-72
2023/09/12 10:34:53;;;;;;;7.05;2.58;;;;;;;29.19;100.00;100704.41;5054469;28;20178;-72
2023/09/12 10:37:22;;;;;;;6.28;2.33;;;;;;;28.76;100.00;100726.69;5072281;28;20476;-71
2023/09/12 10:39:49;;;;;;;7.47;2.42;;;;;;;29.50;100.00;100692.66;5054370;28;20020;-72
2023/09/12 10:42:16;;;;;;;5.97;2.30;;;;;;;30.51;100.00;100648.56;5072480;28;20035;-72
2023/09/12 10:44:44;;;;;;;6.70;2.47;;;;;;;31.09;100.00;100638.22;5072435;28;20039;-72
2023/09/12 10:47:10;;;;;;;5.43;2.55;;;;;;;30.27;100.00;100664.09;5071187;28;20036;-72
2023/09/12 10:49:37;;;;;;;7.35;2.40;;;;;;;30.37;100.00;100657.81;5072690;28;20021;-72
2023/09/12 10:52:03;;;;;;;5.57;2.30;;;;;;;30.61;100.00;100651.91;5072247;28;20032;-73
2023/09/12 10:54:38;;;;;;;6.95;2.53;;;;;;;30.41;100.00;100646.03;5071911;28;20509;-73
2023/09/12 10:57:07;;;;;;;6.25;2.60;;;;;;;30.69;100.00;100633.56;5071125;28;20410;-73
2023/09/12 10:59:35;;;;;;;7.68;2.22;;;;;;;29.92;100.00;100602.00;5072323;28;20093;-73
2023/09/12 11:02:32;;;;;;;5.38;2.53;;;;;;;30.15;100.00;100649.59;5072099;28;20505;-72
2023/09/12 11:04:59;;;;;;;5.35;2.25;;;;;;;29.89;100.00;100655.59;5072336;28;20028;-73
2023/09/12 11:07:45;;;;;;;7.07;2.67;;;;;;;30.65;100.00;100622.56;5072173;28;20085;-72
2023/09/12 11:10:18;;;;;;;8.93;2.58;;;;;;;29.93;100.00;100653.50;5072011;28;20163;-72
2023/09/12 11:12:45;;;;;;;4.70;2.50;;;;;;;29.89;100.00;100665.28;5071919;28;20579;-71